Time;durP1;ratioP1;P1;durP2;ratioP2;P2;SDS_P1;SDS_P2;PMS_P1;PMS_P2;Temp;Humidity;BMP_temperature;BMP_pressure;BME280_temperature;BME280_humidity;BME280_pressure;Samples;Min_cycle;Max_cycle;Signal;HPM_P1;HPM_P2
2021/01/02 00:01:19;;;;;;;95.17;38.83;;;;;;;1.25;81.68;100443.36;1741275;81;25835;-83
2021/01/02 00:04:04;;;;;;;99.03;42.20;;;;;;;1.21;81.70;100443.28;1739329;80;25777;-83
2021/01/02 00:07:08;;;;;;;98.25;39.45;;;;;;;1.21;81.90;100441.95;1719189;83;27534;-82
2021/01/02 00:09:37;;;;;;;111.72;44.50;;;;;;;1.21;81.95;100442.43;1694528;83;25805;-83
2021/01/02 00:12:25;;;;;;;104.97;43.70;;;;;;;1.23;82.09;100452.37;1738266;80;25577;-83
2021/01/02 00:15:07;;;;;;;112.75;43.98;;;;;;;1.26;82.11;100452.93;1764451;79;25809;-83
2021/01/02 00:17:57;;;;;;;107.07;41.45;;;;;;;1.27;82.04;100453.30;1737687;80;25661;-83
2021/01/02 00:21:02;;;;;;;106.30;42.20;;;;;;;1.33;82.04;100455.41;1832796;77;25710;-83
2021/01/02 00:24:11;;;;;;;117.15;44.95;;;;;;;1.29;82.08;100465.03;1767277;78;26151;-83
2021/01/02 00:26:47;;;;;;;107.65;43.83;;;;;;;1.27;82.11;100463.85;1784386;80;27064;-83
2021/01/02 00:29:24;;;;;;;105.90;40.70;;;;;;;1.28;82.07;100453.63;1779595;80;25971;-83
2021/01/02 00:32:31;;;;;;;108.97;42.73;;;;;;;1.27;82.03;100454.62;1737325;80;25936;-82
2021/01/02 00:35:08;;;;;;;117.90;46.50;;;;;;;1.28;82.09;100460.23;1796578;78;26361;-83
2021/01/02 00:37:39;;;;;;;112.37;45.55;;;;;;;1.30;82.26;100458.33;1689760;83;25861;-82
2021/01/02 00:40:16;;;;;;;118.55;47.17;;;;;;;1.35;82.34;100460.55;1679914;84;27587;-83
2021/01/02 00:42:47;;;;;;;122.35;47.60;;;;;;;1.34;82.28;100457.09;1722437;81;26432;-82
2021/01/02 00:45:25;;;;;;;122.67;47.05;;;;;;;1.35;82.23;100456.58;1664500;85;26529;-83
2021/01/02 00:47:53;;;;;;;118.33;41.55;;;;;;;1.32;82.16;100455.55;1671420;85;25956;-83
2021/01/02 00:50:25;;;;;;;120.02;49.05;;;;;;;1.28;82.09;100465.50;1684389;83;25665;-83
2021/01/02 00:53:16;;;;;;;124.92;45.83;;;;;;;1.27;82.25;100470.45;1713187;83;27615;-83
2021/01/02 00:56:07;;;;;;;123.28;45.15;;;;;;;1.28;82.32;100474.74;1667114;84;26024;-83
2021/01/02 00:59:06;;;;;;;121.10;45.08;;;;;;;1.26;82.19;100483.27;1705633;82;25847;-83
2021/01/02 01:02:13;;;;;;;113.45;42.53;;;;;;;1.27;82.41;100484.11;1667538;85;25832;-83
2021/01/02 01:05:05;;;;;;;105.32;43.85;;;;;;;1.29;82.26;100480.86;1686174;83;25367;-83
2021/01/02 01:07:43;;;;;;;110.28;43.45;;;;;;;1.34;82.27;100477.36;1819471;77;25869;-83
2021/01/02 01:10:12;;;;;;;101.07;41.77;;;;;;;1.29;82.29;100483.50;1743594;80;25889;-83
2021/01/02 01:12:43;;;;;;;102.80;41.68;;;;;;;1.24;82.23;100481.76;1758335;80;28152;-83
2021/01/02 01:15:13;;;;;;;117.40;45.30;;;;;;;1.24;82.35;100485.72;1757989;80;25925;-83
2021/01/02 01:18:06;;;;;;;87.88;37.73;;;;;;;1.23;82.38;100489.30;1735300;80;25938;-83
2021/01/02 01:20:35;;;;;;;101.40;39.03;;;;;;;1.23;82.35;100491.47;1729826;80;25875;-83
2021/01/02 01:23:26;;;;;;;108.83;42.50;;;;;;;1.22;82.42;100487.65;1710415;80;25640;-83
2021/01/02 01:26:17;;;;;;;104.85;41.55;;;;;;;1.24;82.44;100475.97;1747249;80;28097;-83
2021/01/02 01:28:47;;;;;;;106.35;41.30;;;;;;;1.26;82.45;100483.27;1759075;80;25827;-82
2021/01/02 01:31:18;;;;;;;103.07;38.80;;;;;;;1.25;82.41;100487.37;1733781;80;26348;-82
2021/01/02 01:33:51;;;;;;;109.72;43.20;;;;;;;1.24;82.44;100483.08;1784311;80;25863;-83
2021/01/02 01:36:20;;;;;;;113.00;43.92;;;;;;;1.25;82.56;100482.94;1766269;80;25695;-83
2021/01/02 01:38:55;;;;;;;102.27;42.13;;;;;;;1.24;82.97;100474.66;1738643;80;27479;-83
2021/01/02 01:41:37;;;;;;;101.60;42.98;;;;;;;1.35;82.58;100485.14;1741156;81;26495;-84
2021/01/02 01:44:18;;;;;;;104.23;41.70;;;;;;;1.37;82.50;100479.72;1699278;81;25798;-82
2021/01/02 01:46:53;;;;;;;99.28;38.80;;;;;;;1.37;82.45;100472.64;1720499;82;25867;-83
2021/01/02 01:49:47;;;;;;;111.92;39.45;;;;;;;1.37;82.42;100476.60;1674170;82;26139;-83
2021/01/02 01:52:42;;;;;;;110.75;41.08;;;;;;;1.39;82.47;100483.09;1720675;82;27577;-83
2021/01/02 01:55:13;;;;;;;106.52;41.77;;;;;;;1.38;82.43;100489.32;1712324;82;26240;-83
2021/01/02 01:57:43;;;;;;;105.07;41.13;;;;;;;1.38;82.48;100480.92;1733323;82;26506;-82
2021/01/02 02:00:16;;;;;;;109.72;42.15;;;;;;;1.38;82.36;100490.64;1712120;82;25923;-82
2021/01/02 02:02:54;;;;;;;114.60;43.73;;;;;;;1.35;82.40;100482.97;1681550;82;26000;-82
2021/01/02 02:05:29;;;;;;;108.63;41.80;;;;;;;1.38;82.55;100481.41;1735933;82;27545;-83
2021/01/02 02:08:10;;;;;;;110.65;41.85;;;;;;;1.41;82.61;100490.39;1705214;83;25967;-83
2021/01/02 02:10:47;;;;;;;107.43;41.83;;;;;;;1.44;82.60;100491.43;1671183;83;26531;-83
2021/01/02 02:13:32;;;;;;;102.35;41.10;;;;;;;1.46;82.50;100490.34;1684724;82;25786;-83
2021/01/02 02:16:02;;;;;;;101.25;39.67;;;;;;;1.46;82.50;100493.45;1718977;82;26156;-83
2021/01/02 02:18:32;;;;;;;114.37;43.78;;;;;;;1.44;82.37;100500.19;1726793;82;27534;-83
2021/01/02 02:21:01;;;;;;;112.12;41.25;;;;;;;1.41;82.42;100500.44;1647479;83;25921;-82
2021/01/02 02:24:01;;;;;;;113.15;43.98;;;;;;;1.42;82.46;100502.13;1722491;82;25777;-83
2021/01/02 02:26:36;;;;;;;115.08;43.73;;;;;;;1.39;82.45;100499.73;1708435;82;25603;-82
2021/01/02 02:29:20;;;;;;;105.78;42.93;;;;;;;1.41;82.62;100503.59;1692520;81;25612;-82
2021/01/02 02:31:47;;;;;;;110.83;43.42;;;;;;;1.42;82.63;100499.97;1714203;82;28417;-82
2021/01/02 02:34:17;;;;;;;112.85;43.73;;;;;;;1.39;82.50;100498.92;1710896;82;25807;-83
2021/01/02 02:36:45;;;;;;;102.58;41.50;;;;;;;1.39;82.59;100496.28;1740171;82;25865;-83
2021/01/02 02:39:15;;;;;;;113.88;44.73;;;;;;;1.41;82.70;100497.80;1665943;80;26777;-84
2021/01/02 02:42:00;;;;;;;111.75;44.85;;;;;;;1.46;82.71;100501.37;1639539;85;25826;-83
2021/01/02 02:44:36;;;;;;;111.35;45.25;;;;;;;1.47;82.68;100499.09;1635851;86;28500;-82
2021/01/02 02:47:06;;;;;;;110.57;43.70;;;;;;;1.51;82.74;100494.75;1677409;84;25819;-82
2021/01/02 02:49:37;;;;;;;118.23;47.33;;;;;;;1.53;82.68;100511.77;1612546;86;25795;-83
2021/01/02 02:52:30;;;;;;;109.42;42.45;;;;;;;1.55;82.79;100504.07;1641561;85;25993;-83
2021/01/02 02:54:59;;;;;;;119.62;45.17;;;;;;;1.62;82.79;100508.82;1640122;86;25842;-83
2021/01/02 02:57:30;;;;;;;116.03;43.52;;;;;;;1.62;82.57;100511.46;1679308;85;27539;-83
2021/01/02 02:59:58;;;;;;;129.38;46.65;;;;;;;1.59;82.53;100507.27;1628703;86;25850;-83
2021/01/02 03:02:27;;;;;;;117.60;45.00;;;;;;;1.63;82.63;100502.08;1655288;85;25806;-83
2021/01/02 03:04:56;;;;;;;116.62;46.28;;;;;;;1.66;82.64;100505.79;1648053;85;25872;-83
2021/01/02 03:07:25;;;;;;;119.02;46.55;;;;;;;1.66;82.57;100504.95;1693303;83;26121;-82
2021/01/02 03:09:55;;;;;;;;;;;;;;;1.68;82.65;100505.17;1636718;85;27535;-83
2021/01/02 03:12:23;;;;;;;126.70;44.75;;;;;;;1.74;82.57;100511.23;1679431;84;25847;-83
2021/01/02 03:14:59;;;;;;;111.95;44.73;;;;;;;1.72;82.59;100512.33;1655289;85;25478;-83
2021/01/02 03:17:27;;;;;;;109.83;45.60;;;;;;;1.73;82.48;100500.34;1682153;83;26076;-82
2021/01/02 03:19:55;;;;;;;122.80;47.48;;;;;;;1.73;82.48;100504.78;1639736;83;25816;-83
2021/01/02 03:22:23;;;;;;;121.65;44.42;;;;;;;1.76;82.57;100496.09;1678630;84;28504;-82
2021/01/02 03:24:50;;;;;;;122.80;47.78;;;;;;;1.79;82.48;100497.64;1655071;85;26117;-83
2021/01/02 03:27:18;;;;;;;112.85;44.83;;;;;;;1.78;82.47;100492.83;1590348;85;26591;-83
2021/01/02 03:29:46;;;;;;;123.38;47.78;;;;;;;1.81;82.48;100498.34;1654352;85;25847;-82
2021/01/02 03:32:14;;;;;;;123.85;46.40;;;;;;;1.78;82.40;100495.47;1654146;85;26276;-83
2021/01/02 03:34:43;;;;;;;109.05;45.52;;;;;;;1.82;82.55;100500.84;1653763;85;27336;-82
2021/01/02 03:37:12;;;;;;;115.30;45.75;;;;;;;1.87;82.52;100511.00;1670029;85;25667;-82
2021/01/02 03:39:39;;;;;;;109.72;43.00;;;;;;;1.87;82.45;100509.69;1650957;85;25899;-83
2021/01/02 03:42:10;;;;;;;112.92;44.83;;;;;;;1.87;82.45;100511.00;1679491;84;26412;-83
2021/01/02 03:44:38;;;;;;;121.28;45.58;;;;;;;1.87;82.42;100517.12;1636722;85;26603;-84
2021/01/02 03:47:08;;;;;;;116.08;44.45;;;;;;;1.89;82.48;100515.19;1585807;86;27305;-83
2021/01/02 03:49:44;;;;;;;110.15;45.38;;;;;;;1.95;82.42;100510.69;1876096;76;25682;-83
2021/01/02 03:52:12;;;;;;;108.72;44.03;;;;;;;1.94;82.46;100509.52;1824951;77;26387;-84
2021/01/02 03:54:41;;;;;;;112.32;43.78;;;;;;;1.95;82.44;100509.84;1756356;80;27502;-82
2021/01/02 03:57:09;;;;;;;112.30;45.73;;;;;;;1.96;82.43;100511.53;1734485;80;26164;-82
2021/01/02 03:59:37;;;;;;;102.58;44.63;;;;;;;1.98;82.37;100506.95;1725059;81;25876;-82
2021/01/02 04:02:07;;;;;;;111.22;43.58;;;;;;;1.99;82.33;100509.45;1729409;81;26507;-83
2021/01/02 04:04:34;;;;;;;123.47;49.83;;;;;;;1.98;82.32;100503.83;1769169;79;26150;-83
2021/01/02 04:07:05;;;;;;;120.90;54.48;;;;;;;2.02;82.30;100516.27;1743232;79;27585;-83
2021/01/02 04:09:32;;;;;;;117.87;51.65;;;;;;;2.02;82.24;100513.62;1743812;79;26216;-83
2021/01/02 04:12:02;;;;;;;116.17;50.05;;;;;;;2.03;82.27;100508.71;1738008;80;25683;-83
2021/01/02 04:14:29;;;;;;;143.85;68.02;;;;;;;2.05;82.27;100512.05;1769144;80;25781;-82
2021/01/02 04:16:59;;;;;;;192.45;105.37;;;;;;;2.02;82.19;100514.47;1744227;80;25814;-83
2021/01/02 04:19:27;;;;;;;186.80;99.20;;;;;;;2.00;82.21;100515.09;1713659;81;27540;-82
2021/01/02 04:21:54;;;;;;;137.62;70.57;;;;;;;2.00;82.25;100515.09;1747108;79;25792;-83
2021/01/02 04:24:23;;;;;;;116.60;54.18;;;;;;;2.03;82.26;100513.48;1776776;79;25880;-82
2021/01/02 04:27:01;;;;;;;118.10;54.77;;;;;;;2.03;82.22;100518.77;1718199;81;25858;-83
2021/01/02 04:29:30;;;;;;;107.85;46.53;;;;;;;2.03;82.14;100527.20;1763736;80;25685;-83
2021/01/02 04:32:00;;;;;;;106.17;44.45;;;;;;;2.04;82.25;100525.74;1740732;79;27310;-83
2021/01/02 04:34:28;;;;;;;170.40;76.47;;;;;;;2.06;82.23;100529.08;1794003;78;25556;-83
2021/01/02 04:36:57;;;;;;;184.55;86.40;;;;;;;2.05;82.14;100526.58;1758196;79;26121;-83
2021/01/02 04:39:25;;;;;;;215.68;99.77;;;;;;;2.04;82.21;100531.02;1741864;79;25812;-83
2021/01/02 04:41:56;;;;;;;235.02;109.60;;;;;;;2.01;82.11;100531.79;1781837;79;25786;-83
2021/01/02 04:44:27;;;;;;;162.45;70.70;;;;;;;2.02;82.21;100537.41;1776435;79;27518;-83
2021/01/02 04:46:56;;;;;;;111.85;47.30;;;;;;;1.99;82.13;100542.97;1744842;79;25795;-83
2021/01/02 04:49:23;;;;;;;112.28;44.98;;;;;;;1.98;82.15;100548.73;1743855;79;26442;-83
2021/01/02 04:52:00;;;;;;;111.65;44.98;;;;;;;2.00;82.18;100553.88;1765049;79;25932;-83
2021/01/02 04:54:30;;;;;;;121.22;49.27;;;;;;;2.00;82.20;100558.68;1786195;79;26148;-83
2021/01/02 04:57:00;;;;;;;124.45;49.33;;;;;;;2.02;82.25;100559.37;1755894;80;27532;-82
2021/01/02 04:59:31;;;;;;;113.72;46.00;;;;;;;2.03;82.28;100562.87;1765849;80;25699;-83
2021/01/02 05:02:02;;;;;;;142.35;60.90;;;;;;;2.03;82.21;100561.55;1764238;79;25904;-83
2021/01/02 05:04:30;;;;;;;148.72;64.60;;;;;;;2.00;82.13;100570.56;1794151;77;33226;-82
2021/01/02 05:06:57;;;;;;;185.88;77.22;;;;;;;2.00;82.27;100567.92;1743390;79;26702;-83
2021/01/02 05:09:27;;;;;;;113.15;47.65;;;;;;;2.01;82.28;100573.55;1747486;77;26864;-83
2021/01/02 05:11:55;;;;;;;111.35;47.55;;;;;;;2.01;82.23;100570.91;1772436;79;25913;-83
2021/01/02 05:14:23;;;;;;;105.83;45.50;;;;;;;1.98;82.21;100572.51;1732663;80;25912;-82
2021/01/02 05:16:51;;;;;;;127.02;54.35;;;;;;;1.98;82.12;100569.87;1719286;81;25413;-83
2021/01/02 05:19:18;;;;;;;130.30;54.18;;;;;;;1.98;82.06;100569.02;1734271;81;25381;-82
2021/01/02 05:21:49;;;;;;;124.02;55.08;;;;;;;1.95;82.10;100576.72;1747237;80;27296;-83
2021/01/02 05:24:20;;;;;;;108.92;42.67;;;;;;;1.94;82.12;100576.39;1765746;80;32699;-82
2021/01/02 05:26:58;;;;;;;95.32;40.40;;;;;;;1.93;82.14;100579.98;1735107;81;26470;-83
2021/01/02 05:29:30;;;;;;;115.72;49.65;;;;;;;1.93;82.20;100578.66;1738655;81;25837;-83
2021/01/02 05:32:06;;;;;;;107.80;44.90;;;;;;;1.98;82.04;100582.23;1828378;77;25773;-82
2021/01/02 05:34:34;;;;;;;94.13;40.43;;;;;;;1.91;82.13;100591.16;1788940;78;26002;-83
2021/01/02 05:37:06;;;;;;;91.35;39.88;;;;;;;1.92;82.11;100591.53;1793529;78;27526;-83
2021/01/02 05:39:49;;;;;;;97.50;42.67;;;;;;;1.90;82.13;100585.55;1753342;78;25831;-82
2021/01/02 05:42:15;;;;;;;89.50;38.48;;;;;;;1.91;82.12;100592.96;1753967;81;25829;-83
2021/01/02 05:44:43;;;;;;;102.30;40.12;;;;;;;1.88;82.16;100593.24;1700939;81;26129;-82
2021/01/02 05:47:15;;;;;;;96.65;40.83;;;;;;;1.90;82.22;100596.11;1753844;81;26253;-83
2021/01/02 05:49:51;;;;;;;92.80;38.73;;;;;;;1.91;82.30;100589.84;1677407;81;27610;-83
2021/01/02 05:52:19;;;;;;;96.12;40.20;;;;;;;1.94;82.28;100591.39;1698486;81;25855;-83
2021/01/02 05:54:52;;;;;;;94.72;38.35;;;;;;;1.93;82.22;100595.83;1728374;81;26552;-82
2021/01/02 05:57:30;;;;;;;91.40;38.78;;;;;;;1.96;82.31;100601.34;1756358;80;26414;-83
2021/01/02 05:59:59;;;;;;;88.87;39.85;;;;;;;1.98;82.31;100605.53;1695350;81;25868;-83
2021/01/02 06:02:37;;;;;;;100.00;40.20;;;;;;;2.00;82.26;100616.80;1689126;81;28429;-82
2021/01/02 06:05:08;;;;;;;87.02;38.78;;;;;;;2.01;82.32;100613.17;1716742;81;25871;-83
2021/01/02 06:07:53;;;;;;;100.97;41.73;;;;;;;2.08;82.24;100605.08;1779783;79;25315;-82
2021/01/02 06:10:21;;;;;;;94.77;40.52;;;;;;;2.00;82.03;100619.44;1705209;81;25973;-82
2021/01/02 06:12:49;;;;;;;94.87;38.30;;;;;;;1.98;82.05;100626.66;1738769;80;27651;-82
2021/01/02 06:15:19;;;;;;;94.60;39.75;;;;;;;1.97;82.03;100623.66;1648979;81;26164;-82
2021/01/02 06:17:47;;;;;;;99.97;37.93;;;;;;;1.95;82.10;100628.70;1695892;80;26515;-83
2021/01/02 06:20:17;;;;;;;90.12;39.33;;;;;;;1.92;82.10;100627.19;1713832;80;25871;-82
2021/01/02 06:22:48;;;;;;;99.70;41.68;;;;;;;1.93;82.10;100627.52;1755359;80;25392;-83
2021/01/02 06:25:18;;;;;;;96.97;42.45;;;;;;;1.94;82.14;100628.38;1696501;80;27635;-83
2021/01/02 06:27:46;;;;;;;90.57;38.25;;;;;;;1.94;82.08;100627.05;1700368;81;26233;-82
2021/01/02 06:30:19;;;;;;;88.03;38.13;;;;;;;1.92;81.99;100623.70;1690132;81;26446;-85
2021/01/02 06:32:48;;;;;;;88.92;38.00;;;;;;;1.90;82.02;100619.04;1701634;83;26188;-82
2021/01/02 06:35:19;;;;;;;85.97;36.68;;;;;;;1.87;82.04;100625.41;1642695;82;25993;-80
2021/01/02 06:37:59;;;;;;;92.40;39.05;;;;;;;1.88;82.03;100621.79;1706217;81;27547;-80
2021/01/02 06:40:39;;;;;;;89.03;38.67;;;;;;;1.89;82.08;100627.91;1692994;83;26070;-82
2021/01/02 06:43:23;;;;;;;96.63;38.92;;;;;;;1.94;82.17;100637.14;1862915;76;25270;-81
2021/01/02 06:45:57;;;;;;;88.82;38.23;;;;;;;1.91;82.12;100635.22;1807550;77;25863;-80
2021/01/02 06:48:31;;;;;;;92.10;38.13;;;;;;;1.91;82.14;100633.42;1811138;77;27523;-80
2021/01/02 06:51:03;;;;;;;88.78;39.40;;;;;;;1.93;82.17;100642.05;1800856;78;26422;-81
2021/01/02 06:53:37;;;;;;;90.45;38.60;;;;;;;1.98;82.28;100641.66;1798462;78;25841;-81
2021/01/02 06:56:14;;;;;;;88.30;38.40;;;;;;;2.01;82.25;100637.45;1790865;78;25736;-81
2021/01/02 06:58:47;;;;;;;85.65;37.35;;;;;;;2.04;82.18;100632.73;1830307;77;26099;-80
2021/01/02 07:01:25;;;;;;;98.58;40.45;;;;;;;2.09;82.18;100636.30;1777546;77;28500;-81
2021/01/02 07:03:53;;;;;;;95.05;38.83;;;;;;;2.10;82.15;100637.96;1800367;78;25751;-81
2021/01/02 07:06:25;;;;;;;105.92;43.42;;;;;;;2.11;82.03;100640.97;1796055;78;25890;-82
2021/01/02 07:09:19;;;;;;;105.12;45.05;;;;;;;2.10;82.00;100650.70;1792710;77;25850;-82
2021/01/02 07:11:50;;;;;;;103.72;43.17;;;;;;;2.09;81.81;100654.33;1797010;77;25942;-81
2021/01/02 07:14:24;;;;;;;99.70;43.02;;;;;;;2.06;81.86;100655.05;1741192;78;27455;-81
2021/01/02 07:17:06;;;;;;;96.60;42.70;;;;;;;2.05;81.96;100655.52;1733066;81;25807;-82
2021/01/02 07:19:39;;;;;;;101.38;40.23;;;;;;;2.05;81.89;100656.84;1808639;78;25824;-82
2021/01/02 07:22:22;;;;;;;93.92;38.75;;;;;;;2.03;81.90;100661.94;1741262;80;25930;-81
2021/01/02 07:24:57;;;;;;;90.97;38.83;;;;;;;2.06;81.98;100666.94;1776184;79;26179;-81
2021/01/02 07:27:35;;;;;;;94.52;39.55;;;;;;;2.07;82.00;100672.59;1773809;78;28380;-81
2021/01/02 07:30:12;;;;;;;88.47;37.80;;;;;;;2.09;82.02;100672.81;1784306;80;25735;-81
2021/01/02 07:32:45;;;;;;;90.07;37.60;;;;;;;2.08;81.84;100682.17;1740030;79;25925;-80
2021/01/02 07:35:16;;;;;;;91.47;37.10;;;;;;;2.07;81.95;100679.19;1756639;78;25714;-81
2021/01/02 07:37:46;;;;;;;91.87;37.65;;;;;;;2.09;82.00;100682.06;1797178;78;25900;-81
2021/01/02 07:40:17;;;;;;;86.73;36.97;;;;;;;2.11;82.01;100685.89;1735944;81;27528;-82
2021/01/02 07:42:53;;;;;;;;;;;;;;;2.13;82.07;100683.95;1686499;82;25837;-81
2021/01/02 07:45:23;;;;;;;81.08;34.00;;;;;;;2.15;81.94;100689.46;1691926;82;25869;-81
2021/01/02 07:47:54;;;;;;;86.22;38.42;;;;;;;2.11;81.99;100689.84;1694804;83;25985;-80
2021/01/02 07:50:28;;;;;;;87.50;37.65;;;;;;;2.10;81.90;100696.94;1680905;82;26005;-80
2021/01/02 07:53:02;;;;;;;83.22;36.33;;;;;;;2.13;82.09;100698.00;1693724;82;28376;-79
2021/01/02 07:55:32;;;;;;;86.50;39.78;;;;;;;2.15;82.02;100713.24;1709333;81;25942;-80
2021/01/02 07:58:01;;;;;;;73.25;33.10;;;;;;;2.14;81.92;100709.39;1662932;82;25837;-80
2021/01/02 08:00:29;;;;;;;78.42;34.95;;;;;;;2.11;81.76;100717.59;1677501;82;25447;-79
2021/01/02 08:03:05;;;;;;;85.35;36.80;;;;;;;2.08;81.84;100720.48;1679863;81;25763;-80
2021/01/02 08:05:33;;;;;;;85.85;36.53;;;;;;;2.07;81.92;100729.39;1696060;82;27538;-81
2021/01/02 08:08:05;;;;;;;79.77;35.17;;;;;;;2.08;81.96;100729.73;1683256;84;25657;-80
2021/01/02 08:10:34;;;;;;;83.35;37.03;;;;;;;2.08;81.96;100727.93;1630142;83;26455;-81
2021/01/02 08:13:02;;;;;;;82.08;35.92;;;;;;;2.09;81.91;100723.02;1663869;82;25439;-80
2021/01/02 08:15:35;;;;;;;89.20;37.05;;;;;;;2.07;81.86;100725.42;1665304;84;25826;-80
2021/01/02 08:18:09;;;;;;;85.75;35.98;;;;;;;2.07;81.98;100723.63;1739195;81;27380;-80
2021/01/02 08:20:38;;;;;;;77.45;32.23;;;;;;;2.09;81.90;100726.13;1712131;83;25914;-83
2021/01/02 08:23:14;;;;;;;83.15;36.63;;;;;;;2.06;81.69;100723.73;1713671;83;25936;-82
2021/01/02 08:25:43;;;;;;;79.42;35.50;;;;;;;2.06;81.79;100736.47;1716270;82;26120;-82
2021/01/02 08:28:11;;;;;;;85.57;35.80;;;;;;;2.07;81.62;100739.48;1684973;84;26409;-82
2021/01/02 08:30:38;;;;;;;79.77;32.70;;;;;;;2.09;81.69;100748.12;1698200;82;27541;-81
2021/01/02 08:33:08;;;;;;;86.82;36.65;;;;;;;2.09;81.73;100748.12;1688330;84;25818;-80
2021/01/02 08:35:40;;;;;;;76.42;35.28;;;;;;;2.09;81.74;100757.36;1712081;83;25856;-80
2021/01/02 08:38:11;;;;;;;89.58;36.73;;;;;;;2.11;81.80;100763.83;1683254;80;25894;-81
2021/01/02 08:40:43;;;;;;;75.72;33.55;;;;;;;2.13;81.82;100765.86;1738241;80;25794;-80
2021/01/02 08:43:26;;;;;;;79.22;35.50;;;;;;;2.21;81.75;100774.81;1793916;77;25630;-80
2021/01/02 08:46:00;;;;;;;83.55;37.58;;;;;;;2.14;81.68;100768.36;1744305;80;25985;-80
2021/01/02 08:48:47;;;;;;;78.37;35.58;;;;;;;2.18;81.65;100765.81;1857563;76;25678;-81
2021/01/02 08:51:26;;;;;;;88.55;37.78;;;;;;;2.13;81.75;100774.63;1821440;77;25456;-80
2021/01/02 08:53:55;;;;;;;90.12;37.53;;;;;;;2.15;81.75;100770.53;1826793;77;27521;-80
2021/01/02 08:56:30;;;;;;;86.10;35.92;;;;;;;2.16;81.76;100769.58;1799575;77;25808;-81
2021/01/02 08:58:59;;;;;;;85.07;33.85;;;;;;;2.16;81.66;100770.90;1812450;77;26503;-81
2021/01/02 09:01:31;;;;;;;81.22;34.05;;;;;;;2.14;81.57;100767.05;1811108;77;25868;-81
2021/01/02 09:04:12;;;;;;;85.50;37.15;;;;;;;2.13;81.58;100767.18;1826742;77;25856;-81
2021/01/02 09:06:40;;;;;;;84.40;36.23;;;;;;;2.11;81.65;100769.12;1794073;77;27532;-81
2021/01/02 09:09:08;;;;;;;81.65;35.92;;;;;;;2.15;81.70;100763.92;1781256;77;25851;-80
2021/01/02 09:11:50;;;;;;;78.22;34.50;;;;;;;2.14;81.63;100778.94;1798788;77;25811;-84
2021/01/02 09:14:19;;;;;;;80.67;34.40;;;;;;;2.13;81.58;100782.56;1833406;77;26177;-80
2021/01/02 09:17:03;;;;;;;87.78;38.13;;;;;;;2.13;81.64;100783.03;1785969;77;25891;-79
2021/01/02 09:19:32;;;;;;;77.92;37.70;;;;;;;2.14;81.80;100785.54;1812306;77;27518;-82
2021/01/02 09:22:00;;;;;;;95.10;40.88;;;;;;;2.16;81.68;100778.83;1811680;77;25731;-80
2021/01/02 09:24:27;;;;;;;115.30;53.10;;;;;;;2.16;81.62;100780.96;1844651;77;25841;-80
2021/01/02 09:26:54;;;;;;;92.40;41.33;;;;;;;2.20;81.67;100776.28;1786135;77;26337;-81
2021/01/02 09:29:22;;;;;;;78.00;34.98;;;;;;;2.23;81.62;100774.68;1784453;77;25743;-80
2021/01/02 09:31:49;;;;;;;79.95;35.08;;;;;;;2.27;81.61;100776.94;1809741;77;28261;-81
2021/01/02 09:34:16;;;;;;;79.00;36.08;;;;;;;2.27;81.50;100774.77;1848169;77;26112;-80
2021/01/02 09:36:45;;;;;;;89.60;40.52;;;;;;;2.26;81.45;100767.83;1773354;77;25873;-79
2021/01/02 09:39:18;;;;;;;83.03;37.13;;;;;;;2.26;81.52;100766.50;1834446;77;25850;-80
2021/01/02 09:41:45;;;;;;;84.40;36.83;;;;;;;2.31;81.52;100770.90;1803397;77;25695;-79
2021/01/02 09:44:13;;;;;;;87.85;40.70;;;;;;;2.31;81.32;100770.90;1806703;77;27734;-79
2021/01/02 09:46:40;;;;;;;93.67;43.65;;;;;;;2.29;81.40;100770.19;1784378;77;25855;-81
2021/01/02 09:49:07;;;;;;;143.90;74.62;;;;;;;2.32;81.52;100774.76;1802643;77;26370;-79
2021/01/02 09:51:35;;;;;;;126.15;64.50;;;;;;;2.33;81.32;100779.06;1818965;77;26412;-79
2021/01/02 09:54:02;;;;;;;241.17;133.25;;;;;;;2.30;81.21;100779.34;1850654;77;26219;-81
2021/01/02 09:56:30;;;;;;;141.10;68.97;;;;;;;2.30;81.09;100784.62;1785380;77;27637;-80
2021/01/02 09:58:57;;;;;;;79.07;38.08;;;;;;;2.26;81.04;100783.20;1793474;77;26509;-80
2021/01/02 10:01:24;;;;;;;90.25;40.58;;;;;;;2.27;81.10;100791.48;1821437;77;25792;-80
2021/01/02 10:03:52;;;;;;;85.47;37.25;;;;;;;2.28;81.21;100787.03;1845862;77;25799;-79
2021/01/02 10:06:19;;;;;;;85.22;40.78;;;;;;;2.33;81.37;100782.20;1800440;77;26494;-79
2021/01/02 10:08:46;;;;;;;78.00;36.85;;;;;;;2.35;81.18;100773.66;1808626;77;27514;-82
2021/01/02 10:11:14;;;;;;;79.50;35.85;;;;;;;2.30;81.05;100767.92;1812808;77;25958;-80
2021/01/02 10:13:41;;;;;;;82.12;40.65;;;;;;;2.28;81.14;100768.53;1842319;77;25719;-80
2021/01/02 10:16:09;;;;;;;79.10;35.92;;;;;;;2.30;81.19;100764.80;1792518;77;25387;-80
2021/01/02 10:18:38;;;;;;;82.25;36.33;;;;;;;2.28;81.13;100767.21;1803511;78;26109;-79
2021/01/02 10:21:05;;;;;;;80.38;39.13;;;;;;;2.28;81.20;100764.57;1819725;77;27079;-80
2021/01/02 10:23:32;;;;;;;84.32;37.67;;;;;;;2.29;81.20;100763.59;1844708;77;26389;-80
2021/01/02 10:26:00;;;;;;;88.45;38.08;;;;;;;2.29;81.15;100775.00;1794100;77;25793;-80
2021/01/02 10:28:27;;;;;;;80.25;35.63;;;;;;;2.33;81.30;100766.35;1800424;78;25834;-79
2021/01/02 10:30:54;;;;;;;86.28;39.13;;;;;;;2.33;81.05;100765.03;1811025;77;26441;-80
2021/01/02 10:33:25;;;;;;;82.10;38.45;;;;;;;2.29;81.16;100759.14;1835845;77;27553;-81
2021/01/02 10:35:54;;;;;;;89.70;44.50;;;;;;;2.27;81.06;100754.47;1816940;77;25826;-80
2021/01/02 10:38:22;;;;;;;289.42;194.52;;;;;;;2.29;81.21;100753.86;1752920;80;26531;-78
2021/01/02 10:40:52;;;;;;;90.17;43.68;;;;;;;2.29;81.02;100739.80;1748322;80;26400;-82
2021/01/02 10:43:20;;;;;;;117.05;72.90;;;;;;;2.28;81.02;100744.75;1764869;80;26081;-79
2021/01/02 10:45:49;;;;;;;94.05;46.88;;;;;;;2.25;81.19;100740.55;1709150;80;27540;-79
2021/01/02 10:48:18;;;;;;;92.10;40.43;;;;;;;2.28;81.15;100742.95;1761570;80;25681;-78
2021/01/02 10:50:47;;;;;;;88.10;42.15;;;;;;;2.26;81.11;100734.80;1778131;80;25761;-78
2021/01/02 10:53:15;;;;;;;95.20;47.88;;;;;;;2.27;81.31;100744.38;1789777;80;26391;-78
2021/01/02 10:55:42;;;;;;;101.62;46.90;;;;;;;2.29;81.18;100740.64;1720747;81;26021;-79
2021/01/02 10:58:10;;;;;;;96.70;43.85;;;;;;;2.27;81.14;100729.84;1717636;81;27513;-79
2021/01/02 11:00:38;;;;;;;82.35;36.33;;;;;;;2.27;81.14;100733.80;1707461;81;25856;-78
2021/01/02 11:03:06;;;;;;;87.70;38.58;;;;;;;2.32;81.36;100740.88;1736248;81;25864;-78
2021/01/02 11:05:34;;;;;;;71.17;31.97;;;;;;;2.32;81.13;100750.13;1698102;81;26400;-78
2021/01/02 11:08:02;;;;;;;78.47;35.75;;;;;;;2.30;81.07;100756.87;1720190;81;25815;-77
2021/01/02 11:10:31;;;;;;;82.37;37.15;;;;;;;2.30;81.23;100755.55;1733678;81;28300;-78
2021/01/02 11:13:01;;;;;;;82.37;37.30;;;;;;;2.33;81.18;100771.64;1758076;81;25874;-80
2021/01/02 11:15:31;;;;;;;76.10;35.03;;;;;;;2.32;81.09;100764.19;1773493;79;25992;-78
2021/01/02 11:17:58;;;;;;;71.28;32.80;;;;;;;2.33;81.02;100757.91;1757690;79;25802;-78
2021/01/02 11:20:26;;;;;;;73.00;32.98;;;;;;;2.29;80.82;100752.53;1770765;79;26323;-78
2021/01/02 11:22:54;;;;;;;71.80;33.45;;;;;;;2.28;80.96;100748.71;1754764;79;28492;-78
2021/01/02 11:25:22;;;;;;;70.42;33.75;;;;;;;2.33;81.14;100753.14;1744997;79;25802;-78
2021/01/02 11:27:49;;;;;;;72.85;32.67;;;;;;;2.35;81.11;100733.50;1752638;79;26437;-78
2021/01/02 11:30:22;;;;;;;77.20;34.60;;;;;;;2.39;81.13;100722.20;1733908;81;25988;-78
2021/01/02 11:32:50;;;;;;;;;;;;;;;2.43;81.18;100726.26;1735043;81;25940;-78
2021/01/02 11:35:19;;;;;;;125.78;49.98;;;;;;;2.46;81.09;100725.16;1756624;79;28450;-78
2021/01/02 11:37:47;;;;;;;106.37;47.38;;;;;;;2.48;81.12;100737.77;1779090;78;26414;-78
2021/01/02 11:40:17;;;;;;;95.47;42.38;;;;;;;2.46;80.99;100739.70;1747527;80;26395;-78